الصفحة الرئيسية
METAR-TAF:

METAR-TAF

مطار :

ريغا, لاتفيا

دائرة عرض: 56-55N, خط طول: 023-58E, ارتفاع: 10 متر

مراقبة الطقس الحالي

تاريخ ووقت الإصدار 33 دقيقة قبل الساعة 08:20UTC
رياح هادئة
درجة الحرارة -12°درجة مئوية
الرطوبة 92%
ضغط 1031 hPa
الرؤية: 2400 متر
غشاء

METAR: EVRA 220820Z 00000KT 5000 2400 BR NSC M12/M13 Q1031 R18/390095 NOSIG

زمن: 10:53 (08:53 UTC)

توقعات

تاريخ ووقت الإصدار 53 دقيقة قبل الساعة 08:00UTC
التوقعات صالحة من22 الساعة 09 UTC إلى 23 الساعة 09 UTC
ريح 2 عقدةمن اتجاهات متغيرة
الرؤية 10 كم أو أكثر
الغيوم لا تقل 1500 م ولا وجود لمزنة ركامية السحاب الأسود
مؤقت
من 22 الساعة 09 UTC إلى 22 الساعة 11 UTC
الرؤية: 3000 متر
غشاء

TAF: EVRA 220800Z 2209/2309 VRB02KT CAVOK TEMPO 2209/2211 3000 BR

أرصاد الطقس والتوقعات من أكثر من 4000 مطار (تقارير الطقس للمطار METAR والتنبؤ بالطقس بالمطارTAF).

المحطات المتاحة هي النقط الصفراء والحمراء على الخريطة.

حرك المؤشر فوق النقطة لمعرفة اسم المحطة.

ثم انقر لمعرفة أرصاد وتوقعات الطقس.

لتغيير الخارطة: اضغط على الأزرار الخضراء مع رمز الصليب الأسود للتكبير. على الزر الأخضر مع شرطة للتصغير، أو على الأسهم الخضراء للخرائط المجاورة.


METAR-TAF: